createdAt,value
2022-11-02T00:01:55.839Z,4.90
2022-11-02T00:04:22.877Z,4.97
2022-11-02T00:06:49.846Z,5.37
2022-11-02T00:09:16.803Z,4.83
2022-11-02T00:11:43.780Z,5.13
2022-11-02T00:14:10.754Z,4.23
2022-11-02T00:16:40.313Z,5.20
2022-11-02T00:19:09.305Z,4.50
2022-11-02T00:21:37.940Z,5.43
2022-11-02T00:24:06.299Z,4.77
2022-11-02T00:26:35.160Z,6.47
2022-11-02T00:29:03.389Z,5.93
2022-11-02T00:31:30.362Z,6.03
2022-11-02T00:33:57.370Z,6.33
2022-11-02T00:36:28.063Z,6.37
2022-11-02T00:38:55.103Z,7.13
2022-11-02T00:41:22.210Z,5.50
2022-11-02T00:43:49.219Z,7.37
2022-11-02T00:46:16.196Z,5.63
2022-11-02T00:48:43.158Z,6.80
2022-11-02T00:51:10.083Z,5.67
2022-11-02T00:53:37.037Z,6.90
2022-11-02T00:56:04.172Z,7.97
2022-11-02T00:58:31.107Z,6.33
2022-11-02T01:00:58.135Z,6.60
2022-11-02T01:03:25.148Z,6.07
2022-11-02T01:05:52.108Z,6.37
2022-11-02T01:08:19.027Z,6.13
2022-11-02T01:10:48.228Z,6.03
2022-11-02T01:13:15.984Z,6.27
2022-11-02T01:15:43.249Z,5.43
2022-11-02T01:18:10.170Z,6.03
2022-11-02T01:20:37.092Z,5.97
2022-11-02T01:23:04.054Z,6.47
2022-11-02T01:25:31.301Z,6.60
2022-11-02T01:27:58.247Z,6.23
2022-11-02T01:30:25.226Z,5.93
2022-11-02T01:32:52.206Z,6.53
2022-11-02T01:35:19.186Z,6.50
2022-11-02T01:37:46.133Z,7.47
2022-11-02T01:40:13.092Z,8.43
2022-11-02T01:42:40.146Z,8.93
2022-11-02T01:45:07.715Z,9.67
2022-11-02T01:47:42.724Z,8.87
2022-11-02T01:50:19.338Z,9.07
2022-11-02T01:52:46.594Z,8.77
2022-11-02T01:55:26.054Z,10.17
2022-11-02T01:57:58.229Z,8.57
2022-11-02T02:00:25.214Z,8.77
2022-11-02T02:03:09.537Z,9.63
2022-11-02T02:05:42.049Z,9.27
2022-11-02T02:08:10.689Z,9.77
2022-11-02T02:10:38.960Z,10.13
2022-11-02T02:13:07.142Z,8.97
2022-11-02T02:16:10.120Z,9.83
2022-11-02T02:18:58.704Z,9.97
2022-11-02T02:22:16.317Z,10.27
2022-11-02T02:25:01.217Z,10.37
2022-11-02T02:28:12.178Z,11.97
2022-11-02T02:30:46.742Z,10.67
2022-11-02T02:33:23.803Z,11.73
2022-11-02T02:36:00.881Z,12.30
2022-11-02T02:38:34.166Z,11.90
2022-11-02T02:41:20.877Z,13.00
2022-11-02T02:43:52.108Z,12.87
2022-11-02T02:46:27.323Z,14.23
2022-11-02T02:48:57.902Z,14.77
2022-11-02T02:51:33.597Z,17.57
2022-11-02T02:54:11.964Z,13.00
2022-11-02T02:57:08.163Z,16.03
2022-11-02T02:59:48.760Z,24.10
2022-11-02T03:02:34.129Z,20.53
2022-11-02T03:05:01.175Z,29.20
2022-11-02T03:07:33.951Z,22.70
2022-11-02T03:10:13.197Z,36.40
2022-11-02T03:12:52.975Z,30.70
2022-11-02T03:15:25.236Z,23.93
2022-11-02T03:18:10.377Z,30.47
2022-11-02T03:21:13.222Z,40.83
2022-11-02T03:23:51.206Z,26.03
2022-11-02T03:26:59.044Z,28.83
2022-11-02T03:29:33.814Z,19.40
2022-11-02T03:32:08.485Z,27.90
2022-11-02T03:34:54.881Z,29.37
2022-11-02T03:37:38.625Z,37.40
2022-11-02T03:40:15.023Z,20.57
2022-11-02T03:42:43.405Z,39.10
2022-11-02T03:45:18.443Z,37.90
2022-11-02T03:47:48.918Z,30.10
2022-11-02T03:50:20.991Z,33.10
2022-11-02T03:52:50.396Z,33.27
2022-11-02T03:55:28.696Z,19.90
2022-11-02T03:57:56.154Z,22.83
2022-11-02T04:00:25.351Z,32.97
2022-11-02T04:02:55.122Z,34.43
2022-11-02T04:05:29.287Z,38.47
2022-11-02T04:08:15.749Z,25.33
2022-11-02T04:11:02.794Z,32.37
2022-11-02T04:13:48.576Z,36.97
2022-11-02T04:16:15.929Z,33.93
2022-11-02T04:19:02.160Z,34.10
2022-11-02T04:21:29.689Z,32.07
2022-11-02T04:24:15.525Z,37.93
2022-11-02T04:26:42.569Z,25.50
2022-11-02T04:29:10.307Z,23.17
2022-11-02T04:31:37.373Z,27.70
2022-11-02T04:34:04.317Z,23.13
2022-11-02T04:36:31.956Z,32.10
2022-11-02T04:38:59.262Z,32.63
2022-11-02T04:41:44.698Z,30.77
2022-11-02T04:44:14.545Z,24.10
2022-11-02T04:46:42.718Z,35.77
2022-11-02T04:49:11.266Z,29.20
2022-11-02T04:51:41.697Z,17.97
2022-11-02T04:54:10.375Z,15.13
2022-11-02T04:56:37.337Z,30.37
2022-11-02T04:59:04.685Z,22.97
2022-11-02T05:01:31.803Z,16.20
2022-11-02T05:03:58.829Z,19.40
2022-11-02T05:06:26.316Z,31.13
2022-11-02T05:08:53.593Z,23.80
2022-11-02T05:11:20.794Z,12.67
2022-11-02T05:13:48.154Z,15.30
2022-11-02T05:16:17.031Z,27.40
2022-11-02T05:18:44.092Z,30.93
2022-11-02T05:21:12.648Z,32.97
2022-11-02T05:23:40.018Z,25.17
2022-11-02T05:26:10.616Z,27.30
2022-11-02T05:28:37.604Z,31.03
2022-11-02T05:31:04.915Z,25.77
2022-11-02T05:33:32.819Z,25.37
2022-11-02T05:36:00.624Z,17.87
2022-11-02T05:38:28.631Z,21.53
2022-11-02T05:40:59.762Z,23.93
2022-11-02T05:43:27.525Z,18.40
2022-11-02T05:46:00.319Z,25.00
2022-11-02T05:48:28.976Z,26.33
2022-11-02T05:51:00.880Z,25.60
2022-11-02T05:53:32.598Z,20.97
2022-11-02T05:56:00.337Z,22.53
2022-11-02T05:58:28.111Z,25.63
2022-11-02T06:00:55.174Z,20.93
2022-11-02T06:03:22.205Z,25.53
2022-11-02T06:06:05.760Z,24.40
2022-11-02T06:08:34.343Z,22.87
2022-11-02T06:11:12.510Z,38.90
2022-11-02T06:13:40.729Z,46.27
2022-11-02T06:16:10.477Z,41.47
2022-11-02T06:18:38.576Z,23.77
2022-11-02T06:21:06.107Z,28.60
2022-11-02T06:23:33.465Z,25.30
2022-11-02T06:26:01.013Z,13.93
2022-11-02T06:28:28.895Z,21.50
2022-11-02T06:30:56.535Z,24.07
2022-11-02T06:33:23.588Z,26.17
2022-11-02T06:35:52.469Z,21.20
2022-11-02T06:38:19.794Z,18.63
2022-11-02T06:41:03.138Z,20.43
2022-11-02T06:43:30.569Z,16.27
2022-11-02T06:45:58.812Z,27.17
2022-11-02T06:48:32.963Z,26.67
2022-11-02T06:51:02.393Z,17.20
2022-11-02T06:53:29.450Z,23.50
2022-11-02T06:55:57.870Z,17.03
2022-11-02T06:58:25.397Z,24.93
2022-11-02T07:00:58.672Z,36.17
2022-11-02T07:03:25.889Z,24.50
2022-11-02T07:05:53.787Z,31.17
2022-11-02T07:08:21.704Z,23.97
2022-11-02T07:10:49.394Z,15.20
2022-11-02T07:13:16.323Z,12.63
2022-11-02T07:15:43.602Z,16.90
2022-11-02T07:18:10.637Z,24.23
2022-11-02T07:20:38.466Z,29.20
2022-11-02T07:23:06.112Z,11.87
2022-11-02T07:25:33.792Z,10.97
2022-11-02T07:28:02.321Z,21.30
2022-11-02T07:30:31.146Z,13.37
2022-11-02T07:32:58.353Z,13.90
2022-11-02T07:35:25.560Z,9.87
2022-11-02T07:37:57.418Z,28.17
2022-11-02T07:40:24.448Z,11.00
2022-11-02T07:42:53.905Z,16.27
2022-11-02T07:45:22.158Z,15.13
2022-11-02T07:47:49.988Z,23.33
2022-11-02T07:50:22.275Z,13.33
2022-11-02T07:52:51.851Z,10.20
2022-11-02T07:55:21.291Z,15.77
2022-11-02T07:57:59.694Z,13.00
2022-11-02T08:00:29.201Z,9.60
2022-11-02T08:02:57.852Z,30.13
2022-11-02T08:05:25.999Z,9.03
2022-11-02T08:08:12.068Z,18.23
2022-11-02T08:10:40.427Z,16.83
2022-11-02T08:13:09.186Z,13.17
2022-11-02T08:15:36.685Z,9.27
2022-11-02T08:18:12.123Z,14.10
2022-11-02T08:20:39.504Z,24.13
2022-11-02T08:23:07.795Z,22.90
2022-11-02T08:25:35.728Z,19.67
2022-11-02T08:28:03.168Z,13.40
2022-11-02T08:30:32.045Z,10.37
2022-11-02T08:33:04.628Z,12.37
2022-11-02T08:35:31.618Z,23.30
2022-11-02T08:38:00.128Z,25.60
2022-11-02T08:40:27.534Z,15.27
2022-11-02T08:43:01.964Z,16.53
2022-11-02T08:45:35.157Z,9.03
2022-11-02T08:48:10.064Z,18.13
2022-11-02T08:50:37.347Z,17.23
2022-11-02T08:53:04.828Z,31.03
2022-11-02T08:55:32.221Z,32.33
2022-11-02T08:58:00.182Z,17.27
2022-11-02T09:00:32.292Z,20.57
2022-11-02T09:03:13.511Z,30.77
2022-11-02T09:05:43.896Z,27.27
2022-11-02T09:08:17.071Z,32.97
2022-11-02T09:10:45.695Z,20.63
2022-11-02T09:13:15.124Z,6.70
2022-11-02T09:15:42.312Z,20.67
2022-11-02T09:18:10.021Z,17.87
2022-11-02T09:20:37.027Z,8.27
2022-11-02T09:23:04.330Z,10.00
2022-11-02T09:25:31.508Z,15.20
2022-11-02T09:28:05.978Z,3.63
2022-11-02T09:30:34.038Z,3.37
2022-11-02T09:33:04.038Z,3.43
2022-11-02T09:35:35.045Z,3.20
2022-11-02T09:38:02.113Z,6.00
2022-11-02T09:40:35.537Z,5.70
2022-11-02T09:43:41.581Z,9.50
2022-11-02T09:46:13.199Z,5.80
2022-11-02T09:48:44.901Z,9.80
2022-11-02T09:51:19.536Z,23.23
2022-11-02T09:54:26.879Z,9.67
2022-11-02T09:56:58.670Z,6.20
2022-11-02T09:59:27.096Z,8.87
2022-11-02T10:02:12.598Z,9.87
2022-11-02T10:05:03.440Z,11.67
2022-11-02T10:07:48.197Z,9.60
2022-11-02T10:10:48.608Z,15.10
2022-11-02T10:13:18.526Z,5.40
2022-11-02T10:15:59.414Z,10.93
2022-11-02T10:18:29.944Z,9.90
2022-11-02T10:21:00.246Z,8.27
2022-11-02T10:23:34.720Z,7.50
2022-11-02T10:26:03.046Z,6.97
2022-11-02T10:28:36.438Z,9.77
2022-11-02T10:31:04.329Z,7.77
2022-11-02T10:33:31.678Z,7.20
2022-11-02T10:36:18.816Z,6.60
2022-11-02T10:39:04.690Z,6.93
2022-11-02T10:42:26.897Z,6.30
2022-11-02T10:45:18.150Z,6.10
2022-11-02T10:48:12.004Z,7.17
2022-11-02T10:50:41.716Z,7.50
2022-11-02T10:53:39.431Z,7.57
2022-11-02T10:56:21.121Z,7.10
2022-11-02T10:59:00.763Z,7.13
2022-11-02T11:01:29.956Z,6.63
2022-11-02T11:03:56.974Z,6.03
2022-11-02T11:06:43.443Z,6.17
2022-11-02T11:09:19.986Z,6.63
2022-11-02T11:11:58.672Z,6.10
2022-11-02T11:20:29.431Z,5.63
2022-11-02T11:23:16.567Z,6.00
2022-11-02T11:25:53.214Z,5.60
2022-11-02T11:28:26.378Z,5.33
2022-11-02T11:31:16.229Z,5.50
2022-11-02T11:33:56.269Z,6.10
2022-11-02T11:39:19.700Z,5.23
2022-11-02T11:41:46.681Z,6.17
2022-11-02T11:44:17.093Z,6.37
2022-11-02T11:46:47.926Z,6.20
2022-11-02T11:52:21.030Z,6.57
2022-11-02T11:55:02.450Z,5.73
2022-11-02T11:57:34.532Z,5.87
2022-11-02T12:00:05.202Z,6.37
2022-11-02T12:02:40.869Z,6.30
2022-11-02T12:05:15.334Z,6.20
2022-11-02T12:08:00.957Z,6.60
2022-11-02T12:10:56.476Z,6.57
2022-11-02T12:13:45.380Z,6.60
2022-11-02T12:16:24.342Z,6.83
2022-11-02T12:18:54.185Z,7.20
2022-11-02T12:21:46.028Z,7.15
2022-11-02T12:24:21.808Z,7.90
2022-11-02T12:26:51.699Z,9.13
2022-11-02T12:29:18.637Z,8.63
2022-11-02T12:31:54.545Z,8.63
2022-11-02T12:35:02.793Z,9.70
2022-11-02T12:38:10.555Z,10.00
2022-11-02T12:40:46.438Z,12.43
2022-11-02T12:43:42.178Z,11.10
2022-11-02T12:46:21.178Z,13.63
2022-11-02T12:49:11.514Z,12.90
2022-11-02T12:51:55.017Z,8.10
2022-11-02T12:54:27.007Z,9.70
2022-11-02T12:56:54.743Z,10.13
2022-11-02T12:59:31.357Z,8.27
2022-11-02T13:02:21.197Z,8.53
2022-11-02T13:04:52.690Z,12.90
2022-11-02T13:07:26.634Z,13.37
2022-11-02T13:10:04.805Z,20.50
2022-11-02T13:12:36.365Z,18.10
2022-11-02T13:15:09.298Z,15.30
2022-11-02T13:17:40.961Z,12.30
2022-11-02T13:20:23.674Z,17.07
2022-11-02T13:23:15.606Z,16.40
2022-11-02T13:25:49.253Z,11.87
2022-11-02T13:28:48.377Z,8.73
2022-11-02T13:31:20.675Z,8.97
2022-11-02T13:33:51.354Z,11.30
2022-11-02T13:36:18.707Z,8.10
2022-11-02T13:39:06.394Z,9.30
2022-11-02T13:41:54.818Z,7.37
2022-11-02T13:44:43.942Z,8.37
2022-11-02T13:47:29.182Z,11.80
2022-11-02T13:49:58.809Z,10.97
2022-11-02T13:52:44.461Z,7.57
2022-11-02T13:55:20.297Z,8.10
2022-11-02T13:57:53.745Z,7.63
2022-11-02T14:00:23.684Z,9.17
2022-11-02T14:03:26.275Z,12.07
2022-11-02T14:06:00.542Z,10.17
2022-11-02T14:08:40.541Z,13.40
2022-11-02T14:11:10.566Z,8.90
2022-11-02T14:13:56.258Z,27.53
2022-11-02T14:16:45.341Z,21.30
2022-11-02T14:19:20.356Z,27.57
2022-11-02T14:21:59.910Z,16.90
2022-11-02T14:24:33.388Z,20.63
2022-11-02T14:27:02.181Z,10.23
2022-11-02T14:29:47.036Z,22.63
2022-11-02T14:32:20.195Z,28.87
2022-11-02T14:35:15.376Z,8.50
2022-11-02T14:38:04.057Z,10.50
2022-11-02T14:41:16.826Z,14.67
2022-11-02T14:43:49.665Z,11.73
2022-11-02T14:46:47.731Z,10.63
2022-11-02T14:49:27.880Z,8.63
2022-11-02T14:52:16.863Z,7.67
2022-11-02T14:54:54.640Z,11.23
2022-11-02T14:57:43.896Z,14.33
2022-11-02T15:00:41.908Z,12.17
2022-11-02T15:03:25.216Z,9.40
2022-11-02T15:06:27.237Z,15.13
2022-11-02T15:08:59.789Z,5.87
2022-11-02T15:11:47.112Z,12.27
2022-11-02T15:14:51.757Z,15.43
2022-11-02T15:17:18.658Z,15.60
2022-11-02T15:19:47.707Z,13.20
2022-11-02T15:22:37.016Z,12.80
2022-11-02T15:25:25.871Z,16.17
2022-11-02T15:27:57.317Z,18.40
2022-11-02T15:30:28.307Z,10.17
2022-11-02T15:33:06.199Z,10.77
2022-11-02T15:35:36.946Z,12.27
2022-11-02T15:38:27.943Z,13.87
2022-11-02T15:41:14.465Z,10.00
2022-11-02T15:44:09.002Z,9.20
2022-11-02T15:47:00.718Z,10.07
2022-11-02T15:49:45.726Z,14.97
2022-11-02T15:52:31.540Z,10.60
2022-11-02T15:55:13.273Z,13.97
2022-11-02T15:57:43.013Z,8.37
2022-11-02T16:00:18.189Z,18.87
2022-11-02T16:02:51.565Z,11.90
2022-11-02T16:05:29.347Z,16.23
2022-11-02T16:08:10.440Z,23.07
2022-11-02T16:10:47.769Z,26.27
2022-11-02T16:13:18.696Z,18.03
2022-11-02T16:15:48.653Z,32.83
2022-11-02T16:18:39.596Z,27.00
2022-11-02T16:21:08.331Z,22.30
2022-11-02T16:23:37.936Z,30.43
2022-11-02T16:26:10.549Z,29.20
2022-11-02T16:28:39.031Z,31.63
2022-11-02T16:31:17.381Z,33.00
2022-11-02T16:33:51.758Z,29.70
2022-11-02T16:36:31.194Z,21.60
2022-11-02T16:39:22.939Z,27.50
2022-11-02T16:41:52.533Z,36.70
2022-11-02T16:44:32.501Z,30.63
2022-11-02T16:47:00.830Z,27.97
2022-11-02T16:49:29.112Z,29.97
2022-11-02T16:52:00.874Z,36.30
2022-11-02T16:54:33.686Z,39.10
2022-11-02T16:57:11.536Z,31.93
2022-11-02T17:00:00.689Z,19.97
2022-11-02T17:02:41.152Z,19.70
2022-11-02T17:05:25.515Z,36.13
2022-11-02T17:08:00.854Z,41.07
2022-11-02T17:10:29.557Z,31.93
2022-11-02T17:12:57.324Z,27.40
2022-11-02T17:15:27.003Z,24.70
2022-11-02T17:18:13.956Z,21.90
2022-11-02T17:20:41.174Z,34.87
2022-11-02T17:23:27.706Z,35.90
2022-11-02T17:26:20.235Z,28.50
2022-11-02T17:28:49.804Z,36.07
2022-11-02T17:31:41.350Z,29.90
2022-11-02T17:34:20.038Z,20.90
2022-11-02T17:36:49.157Z,26.17
2022-11-02T17:39:17.794Z,26.57
2022-11-02T17:42:05.874Z,25.53
2022-11-02T17:44:32.836Z,21.73
2022-11-02T17:46:59.819Z,22.13
2022-11-02T17:49:26.802Z,27.87
2022-11-02T17:51:53.767Z,20.60
2022-11-02T17:54:20.807Z,22.13
2022-11-02T17:56:47.813Z,28.70
2022-11-02T17:59:14.726Z,18.73
2022-11-02T18:01:41.868Z,24.30
2022-11-02T18:04:09.002Z,22.10
2022-11-02T18:06:36.052Z,18.63
2022-11-02T18:09:11.924Z,17.17
2022-11-02T18:11:38.932Z,21.87
2022-11-02T18:14:06.016Z,17.23
2022-11-02T18:16:33.062Z,17.27
2022-11-02T18:19:00.031Z,20.53
2022-11-02T18:21:26.962Z,20.43
2022-11-02T18:23:53.917Z,16.23
2022-11-02T18:26:20.829Z,17.23
2022-11-02T18:28:47.790Z,22.50
2022-11-02T18:31:14.748Z,16.53
2022-11-02T18:33:43.312Z,18.33
2022-11-02T18:36:11.679Z,24.77
2022-11-02T18:38:38.689Z,20.90
2022-11-02T18:41:29.697Z,25.03
2022-11-02T18:44:08.851Z,21.40
2022-11-02T18:46:37.650Z,30.43
2022-11-02T18:49:04.629Z,22.40
2022-11-02T18:51:31.685Z,35.13
2022-11-02T18:54:01.220Z,43.10
2022-11-02T18:56:29.419Z,24.87
2022-11-02T18:58:57.245Z,22.30
2022-11-02T19:01:25.670Z,34.10
2022-11-02T19:03:55.057Z,33.03
2022-11-02T19:06:42.006Z,38.20
2022-11-02T19:09:20.915Z,37.30
2022-11-02T19:12:00.682Z,36.13
2022-11-02T19:14:35.241Z,28.30
2022-11-02T19:17:02.523Z,31.90
2022-11-02T19:19:29.770Z,25.87
2022-11-02T19:21:56.906Z,26.17
2022-11-02T19:24:24.202Z,36.97
2022-11-02T19:26:51.883Z,38.97
2022-11-02T19:29:19.418Z,27.80
2022-11-02T19:31:47.073Z,31.17
2022-11-02T19:34:14.064Z,28.53
2022-11-02T19:36:41.276Z,40.70
2022-11-02T19:39:09.772Z,36.73
2022-11-02T19:41:38.536Z,28.47
2022-11-02T19:44:06.117Z,43.80
2022-11-02T19:46:33.814Z,22.40
2022-11-02T19:49:00.822Z,45.43
2022-11-02T19:51:30.278Z,19.63
2022-11-02T19:54:01.925Z,16.53
2022-11-02T19:56:31.062Z,35.50
2022-11-02T19:58:58.407Z,33.13
2022-11-02T20:01:31.074Z,39.27
2022-11-02T20:03:58.599Z,41.07
2022-11-02T20:06:28.126Z,37.37
2022-11-02T20:08:57.139Z,33.57
2022-11-02T20:11:27.492Z,11.80
2022-11-02T20:13:56.640Z,26.33
2022-11-02T20:16:23.593Z,17.43
2022-11-02T20:18:51.692Z,39.93
2022-11-02T20:21:35.671Z,26.00
2022-11-02T20:24:07.990Z,10.43
2022-11-02T20:26:36.326Z,14.27
2022-11-02T20:29:05.469Z,13.30
2022-11-02T20:31:37.716Z,9.90
2022-11-02T20:34:06.930Z,9.30
2022-11-02T20:36:34.897Z,10.40
2022-11-02T20:39:04.865Z,8.87
2022-11-02T20:41:32.154Z,10.67
2022-11-02T20:43:59.613Z,8.80
2022-11-02T20:46:37.647Z,14.47
2022-11-02T20:49:20.091Z,14.30
2022-11-02T20:51:52.748Z,23.50
2022-11-02T20:54:20.564Z,21.00
2022-11-02T20:56:48.555Z,26.57
2022-11-02T20:59:15.920Z,18.83
2022-11-02T21:01:43.047Z,19.37
2022-11-02T21:04:12.847Z,15.37
2022-11-02T21:06:45.395Z,13.30
2022-11-02T21:09:12.531Z,12.43
2022-11-02T21:11:58.784Z,22.30
2022-11-02T21:14:25.721Z,20.80
2022-11-02T21:16:52.697Z,26.93
2022-11-02T21:19:19.687Z,12.20
2022-11-02T21:21:47.056Z,24.80
2022-11-02T21:24:14.066Z,22.00
2022-11-02T21:26:41.095Z,22.30
2022-11-02T21:29:09.389Z,35.47
2022-11-02T21:31:36.467Z,31.07
2022-11-02T21:34:04.151Z,30.90
2022-11-02T21:36:31.196Z,22.00
2022-11-02T21:38:58.932Z,37.63
2022-11-02T21:41:28.944Z,23.10
2022-11-02T21:43:56.391Z,20.43
2022-11-02T21:46:25.746Z,16.43
2022-11-02T21:48:52.981Z,14.23
2022-11-02T21:51:21.569Z,24.73
2022-11-02T21:53:50.484Z,23.43
2022-11-02T21:56:20.562Z,27.93
2022-11-02T21:58:48.258Z,34.50
2022-11-02T22:01:39.789Z,21.03
2022-11-02T22:04:07.921Z,22.90
2022-11-02T22:06:35.087Z,11.70
2022-11-02T22:09:02.438Z,14.57
2022-11-02T22:11:29.522Z,13.47
2022-11-02T22:13:58.755Z,15.03
2022-11-02T22:16:32.044Z,23.57
2022-11-02T22:19:04.629Z,14.20
2022-11-02T22:21:33.945Z,15.23
2022-11-02T22:24:01.530Z,11.47
2022-11-02T22:26:30.421Z,18.87
2022-11-02T22:28:58.305Z,20.70
2022-11-02T22:31:27.999Z,14.23
2022-11-02T22:33:57.101Z,19.63
2022-11-02T22:36:26.637Z,13.67
2022-11-02T22:38:55.284Z,9.10
2022-11-02T22:41:29.055Z,10.43
2022-11-02T22:44:01.482Z,10.83
2022-11-02T22:46:30.299Z,25.77
2022-11-02T22:48:59.022Z,13.97
2022-11-02T22:51:28.567Z,15.07
2022-11-02T22:53:55.809Z,16.33
2022-11-02T22:56:23.595Z,8.57
2022-11-02T22:58:51.749Z,20.13
2022-11-02T23:01:21.183Z,7.73
2022-11-02T23:03:48.796Z,30.93
2022-11-02T23:06:17.035Z,20.37
2022-11-02T23:08:45.995Z,12.80
2022-11-02T23:11:21.375Z,9.50
2022-11-02T23:13:57.641Z,22.13
2022-11-02T23:16:27.443Z,10.63
2022-11-02T23:19:27.720Z,14.77
2022-11-02T23:22:24.626Z,8.40
2022-11-02T23:25:12.766Z,11.27
2022-11-02T23:28:02.539Z,8.03
2022-11-02T23:30:55.566Z,7.33
2022-11-02T23:33:24.340Z,9.80
2022-11-02T23:36:10.659Z,7.73
2022-11-02T23:39:00.206Z,12.67
2022-11-02T23:41:28.752Z,8.57
2022-11-02T23:44:11.686Z,8.30
2022-11-02T23:46:41.189Z,15.17
2022-11-02T23:49:08.486Z,21.37
2022-11-02T23:51:54.343Z,13.63
2022-11-02T23:54:40.029Z,9.53
2022-11-02T23:57:06.986Z,9.37
2022-11-02T23:59:33.915Z,18.37
